Time;durP1;ratioP1;P1;durP2;ratioP2;P2;SDS_P1;SDS_P2;PMS_P1;PMS_P2;Temp;Humidity;BMP_temperature;BMP_pressure;BME280_temperature;BME280_humidity;BME280_pressure;Samples;Min_cycle;Max_cycle;Signal;HPM_P1;HPM_P2
2022/05/12 00:01:15;;;;;;;6.50;5.80;;;19.00;99.90;;;;;;5094311;28;20510;-71
2022/05/12 00:03:42;;;;;;;9.13;5.83;;;18.90;99.90;;;;;;5093966;28;20481;-70
2022/05/12 00:06:10;;;;;;;6.77;6.10;;;18.90;99.90;;;;;;5094792;28;20453;-70
2022/05/12 00:08:37;;;;;;;8.90;5.93;;;18.90;99.90;;;;;;5094076;28;20909;-70
2022/05/12 00:11:04;;;;;;;5.57;5.07;;;18.90;99.90;;;;;;5093919;28;20457;-70
2022/05/12 00:13:31;;;;;;;10.53;7.20;;;18.80;99.90;;;;;;5094176;28;20469;-70
2022/05/12 00:15:58;;;;;;;6.97;5.50;;;18.80;99.90;;;;;;5098064;28;20484;-70
2022/05/12 00:18:26;;;;;;;5.73;5.13;;;18.80;99.90;;;;;;5098195;28;20454;-71
2022/05/12 00:20:53;;;;;;;6.37;5.77;;;18.80;99.90;;;;;;5098275;28;20460;-70
2022/05/12 00:23:23;;;;;;;5.60;5.00;;;18.80;99.90;;;;;;5097912;28;20518;-70
2022/05/12 00:25:51;;;;;;;5.73;5.23;;;18.70;99.90;;;;;;5097968;28;20445;-70
2022/05/12 00:28:20;;;;;;;5.50;5.00;;;18.70;99.90;;;;;;5097629;28;20933;-71
2022/05/12 00:30:48;;;;;;;6.37;5.77;;;18.70;99.90;;;;;;5097373;28;20929;-70
2022/05/12 00:33:16;;;;;;;5.23;4.50;;;18.70;99.90;;;;;;5097911;28;20453;-71
2022/05/12 00:35:44;;;;;;;8.30;5.10;;;18.70;99.90;;;;;;5097729;28;20506;-70
2022/05/12 00:38:11;;;;;;;7.13;5.93;;;18.70;99.90;;;;;;5098101;28;20832;-70
2022/05/12 00:40:41;;;;;;;5.50;5.00;;;18.80;99.90;;;;;;5097497;28;20460;-70
2022/05/12 00:43:29;;;;;;;5.33;4.80;;;18.80;99.90;;;;;;5097672;28;20816;-70
2022/05/12 00:45:56;;;;;;;5.73;4.90;;;18.90;99.90;;;;;;5097325;28;20457;-69
2022/05/12 00:48:23;;;;;;;5.57;4.90;;;18.90;99.90;;;;;;5097345;28;20516;-69
2022/05/12 00:50:50;;;;;;;6.10;5.17;;;18.90;99.90;;;;;;5097183;28;20518;-69
2022/05/12 00:53:17;;;;;;;5.33;4.83;;;18.90;99.90;;;;;;5097696;28;20914;-71
2022/05/12 00:55:46;;;;;;;7.23;4.40;;;19.00;99.90;;;;;;5097466;28;20491;-69
2022/05/12 00:58:19;;;;;;;5.10;4.37;;;19.00;99.90;;;;;;5097445;28;20910;-69
2022/05/12 01:00:47;;;;;;;4.90;4.40;;;19.10;99.90;;;;;;5097282;28;20881;-72
2022/05/12 01:03:18;;;;;;;7.97;4.67;;;19.10;99.90;;;;;;5097463;28;20516;-69
2022/05/12 01:05:45;;;;;;;8.20;4.80;;;19.10;99.90;;;;;;5097385;28;20441;-69
2022/05/12 01:08:14;;;;;;;4.97;4.57;;;19.20;99.90;;;;;;5097339;28;20456;-69
2022/05/12 01:10:44;;;;;;;5.03;4.53;;;19.20;99.90;;;;;;5096808;28;20549;-69
2022/05/12 01:13:12;;;;;;;7.87;5.30;;;19.20;99.90;;;;;;5097655;28;20450;-69
2022/05/12 01:15:50;;;;;;;7.13;4.77;;;19.10;99.90;;;;;;5096502;28;20526;-70
2022/05/12 01:18:17;;;;;;;7.37;4.40;;;19.10;99.90;;;;;;5097071;28;20473;-70
2022/05/12 01:20:44;;;;;;;6.73;5.10;;;19.20;99.90;;;;;;5096988;28;20504;-70
2022/05/12 01:23:23;;;;;;;5.47;4.97;;;19.20;99.90;;;;;;5096503;28;20464;-70
2022/05/12 01:25:50;;;;;;;8.00;5.27;;;19.20;99.90;;;;;;5095950;28;20437;-70
2022/05/12 01:28:17;;;;;;;6.07;4.67;;;19.20;99.90;;;;;;5096741;28;20518;-71
2022/05/12 01:30:44;;;;;;;7.40;5.37;;;19.00;99.90;;;;;;5096738;28;20450;-71
2022/05/12 01:33:11;;;;;;;5.80;5.20;;;18.80;99.90;;;;;;5096834;28;20461;-72
2022/05/12 01:35:38;;;;;;;7.10;5.00;;;18.40;99.90;;;;;;5096752;28;20464;-72
2022/05/12 01:38:05;;;;;;;6.10;5.50;;;18.00;99.90;;;;;;5096635;28;20560;-71
2022/05/12 01:40:33;;;;;;;5.53;5.13;;;17.60;99.90;;;;;;5096609;28;20479;-70
2022/05/12 01:42:59;;;;;;;6.77;6.07;;;17.30;99.90;;;;;;5096502;28;20468;-71
2022/05/12 01:45:27;;;;;;;6.43;5.70;;;17.10;99.90;;;;;;5097407;28;20483;-71
2022/05/12 01:47:54;;;;;;;6.67;5.57;;;16.90;99.90;;;;;;5096812;28;20473;-70
2022/05/12 01:50:22;;;;;;;7.10;6.40;;;16.80;99.90;;;;;;5096392;28;20461;-70
2022/05/12 01:52:49;;;;;;;11.30;6.07;;;16.70;99.90;;;;;;5096357;28;20488;-70
2022/05/12 01:55:19;;;;;;;8.10;6.83;;;16.70;99.90;;;;;;5095977;28;20922;-71
2022/05/12 01:57:48;;;;;;;11.43;6.43;;;16.80;99.90;;;;;;5096217;28;20480;-70
2022/05/12 02:00:19;;;;;;;6.80;6.20;;;16.80;99.90;;;;;;5095908;28;20453;-70
2022/05/12 02:02:45;;;;;;;11.30;6.60;;;16.80;99.90;;;;;;5095799;28;20790;-70
2022/05/12 02:05:12;;;;;;;7.70;6.90;;;16.80;99.90;;;;;;5096215;28;20461;-70
2022/05/12 02:07:40;;;;;;;7.87;5.50;;;16.80;99.90;;;;;;5096137;28;20557;-70
2022/05/12 02:10:09;;;;;;;6.97;6.10;;;16.90;99.90;;;;;;5096412;28;20464;-72
2022/05/12 02:12:36;;;;;;;6.63;6.13;;;16.90;99.90;;;;;;5096373;28;20457;-71
2022/05/12 02:15:06;;;;;;;6.33;5.73;;;16.90;99.90;;;;;;5096126;28;20539;-71
2022/05/12 02:17:33;;;;;;;8.73;6.03;;;16.80;99.90;;;;;;5096074;28;20568;-72
2022/05/12 02:20:00;;;;;;;9.63;6.33;;;16.80;99.90;;;;;;5096012;28;20545;-72
2022/05/12 02:22:27;;;;;;;7.30;6.43;;;16.80;99.90;;;;;;5095873;28;20531;-70
2022/05/12 02:24:53;;;;;;;8.27;6.60;;;16.60;99.90;;;;;;5095994;28;20472;-70
2022/05/12 02:27:20;;;;;;;10.90;7.83;;;16.30;99.90;;;;;;5095902;28;20449;-71
2022/05/12 02:29:47;;;;;;;8.23;7.07;;;16.00;99.90;;;;;;5095988;28;20468;-73
2022/05/12 02:32:15;;;;;;;9.23;8.30;;;15.90;99.90;;;;;;5095410;28;20491;-72
2022/05/12 02:34:42;;;;;;;9.03;8.07;;;15.70;99.90;;;;;;5096008;28;20457;-73
2022/05/12 02:37:09;;;;;;;10.33;8.37;;;15.60;99.90;;;;;;5094935;28;20477;-74
2022/05/12 02:39:38;;;;;;;12.07;8.23;;;15.50;99.90;;;;;;5095049;28;20485;-73
2022/05/12 02:42:06;;;;;;;9.17;8.20;;;15.40;99.90;;;;;;5094905;28;20461;-73
2022/05/12 02:44:33;;;;;;;11.70;9.23;;;15.30;99.90;;;;;;5095313;28;20893;-73
2022/05/12 02:47:00;;;;;;;10.73;9.00;;;15.20;99.90;;;;;;5094924;28;20764;-73
2022/05/12 02:49:28;;;;;;;12.97;8.57;;;15.20;99.90;;;;;;5095246;28;20461;-73
2022/05/12 02:51:55;;;;;;;11.63;10.47;;;15.10;99.90;;;;;;5095045;28;20510;-72
2022/05/12 02:54:22;;;;;;;11.53;9.77;;;15.00;99.90;;;;;;5094663;28;20998;-73
2022/05/12 02:56:52;;;;;;;14.20;10.10;;;15.00;99.90;;;;;;5094780;28;20484;-73
2022/05/12 02:59:19;;;;;;;13.07;9.30;;;14.90;99.90;;;;;;5095095;28;20449;-72
2022/05/12 03:01:45;;;;;;;14.27;9.57;;;14.90;99.90;;;;;;5094711;28;20496;-72
2022/05/12 03:04:12;;;;;;;15.80;9.50;;;14.80;99.90;;;;;;5094802;28;20473;-72
2022/05/12 03:06:40;;;;;;;11.67;9.90;;;14.80;99.90;;;;;;5094945;28;20789;-72
2022/05/12 03:09:07;;;;;;;10.93;9.67;;;14.80;99.90;;;;;;5094840;28;20457;-73
2022/05/12 03:11:34;;;;;;;11.57;9.83;;;14.80;99.90;;;;;;5094662;28;20457;-72
2022/05/12 03:14:03;;;;;;;11.83;9.00;;;14.90;99.90;;;;;;5094899;28;20461;-72
2022/05/12 03:16:30;;;;;;;14.37;8.93;;;14.90;99.90;;;;;;5094312;28;20492;-72
2022/05/12 03:18:57;;;;;;;9.80;8.80;;;14.90;99.90;;;;;;5095045;28;20460;-73
2022/05/12 03:21:24;;;;;;;10.90;8.73;;;14.80;99.90;;;;;;5094392;28;20890;-72
2022/05/12 03:23:52;;;;;;;13.67;9.03;;;14.80;99.90;;;;;;5094692;28;20457;-73
2022/05/12 03:26:19;;;;;;;14.23;9.40;;;14.80;99.90;;;;;;5094705;28;20555;-72
2022/05/12 03:28:46;;;;;;;11.33;8.90;;;14.80;99.90;;;;;;5094310;28;20906;-71
2022/05/12 03:31:13;;;;;;;12.80;10.03;;;14.90;99.90;;;;;;5094772;28;20534;-71
2022/05/12 03:33:41;;;;;;;17.77;9.70;;;14.80;99.90;;;;;;5094485;28;20468;-71
2022/05/12 03:36:09;;;;;;;13.23;9.20;;;14.80;99.90;;;;;;5094792;28;20449;-71
2022/05/12 03:38:36;;;;;;;11.30;9.10;;;14.80;99.90;;;;;;5094638;28;20485;-71
2022/05/12 03:41:05;;;;;;;11.00;8.87;;;14.80;99.90;;;;;;5094717;28;20461;-72
2022/05/12 03:46:16;;;;;;;11.90;8.30;;;14.80;99.90;;;;;;5098317;28;20433;-71
2022/05/12 03:48:43;;;;;;;14.23;8.40;;;14.80;99.90;;;;;;5097113;28;20457;-72
2022/05/12 03:51:12;;;;;;;8.83;7.40;;;14.70;99.90;;;;;;5100463;28;20464;-73
2022/05/12 03:53:40;;;;;;;12.57;7.30;;;14.60;99.90;;;;;;5099419;28;20457;-73
2022/05/12 03:56:09;;;;;;;14.97;8.23;;;14.60;99.90;;;;;;5098486;28;20492;-73
2022/05/12 03:58:36;;;;;;;11.47;7.47;;;14.60;99.90;;;;;;5098921;28;20477;-73
2022/05/12 04:01:05;;;;;;;11.63;6.90;;;14.60;99.90;;;;;;5098517;28;20529;-73
2022/05/12 04:03:32;;;;;;;11.13;8.10;;;14.50;99.90;;;;;;5098092;28;20538;-73
2022/05/12 04:06:01;;;;;;;9.63;6.67;;;14.60;99.90;;;;;;5099635;28;20950;-73
2022/05/12 04:08:28;;;;;;;7.63;6.80;;;14.50;99.90;;;;;;5100060;28;20917;-72
2022/05/12 04:10:55;;;;;;;9.70;7.03;;;14.50;99.90;;;;;;5099713;28;20753;-73
2022/05/12 04:13:23;;;;;;;13.63;7.30;;;14.50;99.90;;;;;;5098838;28;20472;-73
2022/05/12 04:15:50;;;;;;;11.67;7.60;;;14.50;99.90;;;;;;5098058;28;20748;-73
2022/05/12 04:18:17;;;;;;;13.93;7.00;;;14.50;99.90;;;;;;5097858;28;20507;-73
2022/05/12 04:20:44;;;;;;;10.07;6.10;;;14.50;99.90;;;;;;5098031;28;20457;-73
2022/05/12 04:23:11;;;;;;;14.43;7.10;;;14.60;99.90;;;;;;5098160;28;20458;-73
2022/05/12 04:25:38;;;;;;;7.80;6.53;;;14.60;99.90;;;;;;5099438;28;20486;-72
2022/05/12 04:28:05;;;;;;;6.70;6.00;;;14.60;99.90;;;;;;5097980;28;20511;-72
2022/05/12 04:30:33;;;;;;;9.33;5.80;;;14.70;99.90;;;;;;5097380;28;20457;-73
2022/05/12 04:35:11;;;;;;;9.23;6.10;;;14.70;99.90;;;;;;5098300;28;20457;-73
2022/05/12 04:35:46;;;;;;;12.70;5.90;;;14.70;99.90;;;;;;5098419;28;20920;-74
2022/05/12 04:38:12;;;;;;;10.97;5.73;;;14.70;99.90;;;;;;5098101;28;20568;-74
2022/05/12 04:40:39;;;;;;;10.27;5.80;;;14.70;99.90;;;;;;5097727;28;20782;-74
2022/05/12 04:43:06;;;;;;;9.70;6.03;;;14.70;99.90;;;;;;5097760;28;20458;-74
2022/05/12 04:45:35;;;;;;;7.40;5.80;;;14.70;99.90;;;;;;5097320;28;20470;-73
2022/05/12 04:48:02;;;;;;;13.40;6.73;;;14.80;99.90;;;;;;5097336;28;20765;-74
2022/05/12 04:50:32;;;;;;;9.00;5.90;;;14.80;99.90;;;;;;5097392;28;20526;-74
2022/05/12 04:52:59;;;;;;;7.77;4.77;;;14.80;99.90;;;;;;5096986;28;20453;-74
2022/05/12 04:55:26;;;;;;;7.80;4.70;;;14.80;99.90;;;;;;5097344;28;20511;-77
2022/05/12 04:57:56;;;;;;;8.17;4.40;;;14.80;99.90;;;;;;5097558;28;20469;-74
2022/05/12 05:00:26;;;;;;;8.60;5.53;;;14.90;99.90;;;;;;5096334;28;20511;-74
2022/05/12 05:02:54;;;;;;;5.70;4.50;;;14.90;99.90;;;;;;5096271;28;20524;-74
2022/05/12 05:05:21;;;;;;;7.20;4.53;;;14.90;99.90;;;;;;5097763;28;20452;-74
2022/05/12 05:07:47;;;;;;;12.23;4.67;;;15.00;99.90;;;;;;5099496;28;20449;-74
2022/05/12 05:10:15;;;;;;;4.90;4.10;;;15.00;99.90;;;;;;5101204;28;20457;-73
2022/05/12 05:12:43;;;;;;;7.87;4.17;;;15.00;99.90;;;;;;5098881;28;20453;-74
2022/05/12 05:15:11;;;;;;;6.00;4.20;;;15.00;99.90;;;;;;5097196;28;20914;-73
2022/05/12 05:17:39;;;;;;;5.10;3.97;;;15.00;99.90;;;;;;5097122;28;20572;-74
2022/05/12 05:20:10;;;;;;;5.20;4.00;;;15.00;99.90;;;;;;5097263;28;20461;-74
2022/05/12 05:22:37;;;;;;;4.80;3.77;;;15.00;99.90;;;;;;5097577;28;20442;-74
2022/05/12 05:25:04;;;;;;;5.90;3.50;;;15.00;99.90;;;;;;5096442;28;20457;-74
2022/05/12 05:27:31;;;;;;;5.63;3.60;;;15.10;99.90;;;;;;5096631;28;20458;-73
2022/05/12 05:29:58;;;;;;;4.17;3.67;;;15.10;99.90;;;;;;5096856;28;20457;-73
2022/05/12 05:32:27;;;;;;;4.80;3.20;;;15.10;99.90;;;;;;5096681;28;20457;-73
2022/05/12 05:34:54;;;;;;;4.73;2.67;;;15.00;99.90;;;;;;5096643;28;20513;-73
2022/05/12 05:37:22;;;;;;;7.23;2.90;;;15.00;99.90;;;;;;5096214;28;20462;-73
2022/05/12 05:39:49;;;;;;;3.40;2.43;;;15.00;99.90;;;;;;5096140;28;20529;-72
2022/05/12 05:42:18;;;;;;;4.90;3.10;;;15.10;99.90;;;;;;5096832;28;20511;-72
2022/05/12 05:44:44;;;;;;;4.17;2.53;;;15.00;99.90;;;;;;5097240;28;20457;-74
2022/05/12 05:47:11;;;;;;;3.33;2.17;;;15.10;99.90;;;;;;5096783;28;20538;-75
2022/05/12 05:49:38;;;;;;;3.93;2.50;;;15.00;99.90;;;;;;5096949;28;20484;-74
2022/05/12 05:54:52;;;;;;;13.67;2.50;;;15.00;99.90;;;;;;5096010;28;20559;-73
2022/05/12 05:57:23;;;;;;;6.70;2.50;;;15.10;99.90;;;;;;5096179;28;20461;-72
2022/05/12 05:59:51;;;;;;;9.70;2.40;;;15.10;99.90;;;;;;5096944;28;20449;-74
2022/05/12 06:02:18;;;;;;;5.30;2.87;;;15.10;99.90;;;;;;5096455;28;20775;-73
2022/05/12 06:04:45;;;;;;;2.70;2.43;;;15.10;99.90;;;;;;5096023;28;20509;-73
2022/05/12 06:07:11;;;;;;;6.87;2.80;;;15.10;99.90;;;;;;5095193;28;20496;-73
2022/05/12 06:09:38;;;;;;;3.93;2.00;;;15.10;99.90;;;;;;5096003;28;20496;-72
2022/05/12 06:12:07;;;;;;;5.60;2.53;;;15.20;99.90;;;;;;5096824;28;20458;-74
2022/05/12 06:14:34;;;;;;;3.63;1.90;;;15.20;99.90;;;;;;5097141;28;20465;-74
2022/05/12 06:17:01;;;;;;;4.27;1.80;;;15.30;99.90;;;;;;5096758;28;20454;-73
2022/05/12 06:19:28;;;;;;;3.60;1.97;;;15.50;99.90;;;;;;5096768;28;20481;-74
2022/05/12 06:21:54;;;;;;;3.70;1.70;;;15.50;99.90;;;;;;5097618;28;20476;-75
2022/05/12 06:24:21;;;;;;;5.20;1.83;;;15.50;99.90;;;;;;5096628;28;20460;-73
2022/05/12 06:26:48;;;;;;;5.03;1.43;;;15.40;99.90;;;;;;5096717;28;20464;-73
2022/05/12 06:29:16;;;;;;;3.93;2.00;;;15.40;99.90;;;;;;5097038;28;20453;-73
2022/05/12 06:31:43;;;;;;;2.37;1.50;;;15.30;99.90;;;;;;5095845;28;20465;-73
2022/05/12 06:34:10;;;;;;;2.77;1.47;;;15.30;99.90;;;;;;5095464;28;20518;-74
2022/05/12 06:36:37;;;;;;;1.97;1.47;;;15.30;99.90;;;;;;5095573;28;20471;-74
2022/05/12 06:39:03;;;;;;;3.00;1.60;;;15.30;99.90;;;;;;5095044;28;20481;-74
2022/05/12 06:41:32;;;;;;;3.90;1.60;;;15.40;99.90;;;;;;5097981;28;20457;-74
2022/05/12 06:44:00;;;;;;;2.17;1.57;;;15.30;99.90;;;;;;5095538;28;20544;-74
2022/05/12 06:46:28;;;;;;;3.93;1.50;;;15.40;99.90;;;;;;5095485;28;20461;-74
2022/05/12 06:48:55;;;;;;;2.50;1.40;;;15.50;99.90;;;;;;5095825;28;20450;-75
2022/05/12 06:51:22;;;;;;;2.57;1.53;;;15.50;99.90;;;;;;5095938;28;20793;-74
2022/05/12 06:53:48;;;;;;;1.90;1.50;;;15.60;99.90;;;;;;5096350;28;20488;-73
2022/05/12 06:56:15;;;;;;;1.30;1.10;;;15.60;99.90;;;;;;5095967;28;20457;-72
2022/05/12 06:58:42;;;;;;;3.07;1.40;;;15.50;99.90;;;;;;5095578;28;20500;-73
2022/05/12 07:01:09;;;;;;;5.33;1.33;;;15.60;99.90;;;;;;5094305;28;20464;-73
2022/05/12 07:03:38;;;;;;;2.53;1.40;;;15.70;99.90;;;;;;5094397;28;20489;-74
2022/05/12 07:06:06;;;;;;;1.70;1.13;;;15.80;99.90;;;;;;5094807;28;20533;-74
2022/05/12 07:08:33;;;;;;;3.23;1.20;;;15.90;99.90;;;;;;5094446;28;20568;-74
2022/05/12 07:10:59;;;;;;;3.40;1.10;;;16.00;99.90;;;;;;5095164;28;20465;-74
2022/05/12 07:13:26;;;;;;;1.90;1.30;;;16.00;99.90;;;;;;5096380;28;20775;-73
2022/05/12 07:15:54;;;;;;;1.90;1.10;;;15.90;99.90;;;;;;5094753;28;20461;-74
2022/05/12 07:18:21;;;;;;;2.00;1.20;;;15.80;99.90;;;;;;5093967;28;20542;-74
2022/05/12 07:26:36;;;;;;;2.20;1.10;;;15.90;99.90;;;;;;5095018;28;20436;-73
2022/05/12 07:29:03;;;;;;;2.27;1.07;;;15.80;99.90;;;;;;5096756;28;20441;-73
2022/05/12 07:31:29;;;;;;;3.60;1.23;;;15.70;99.90;;;;;;5094841;28;20461;-73
2022/05/12 07:33:57;;;;;;;2.50;1.13;;;15.70;99.90;;;;;;5095488;28;20457;-75
2022/05/12 07:36:28;;;;;;;2.33;0.93;;;15.70;99.90;;;;;;5095147;28;20492;-74
2022/05/12 07:38:56;;;;;;;4.23;1.20;;;15.60;99.90;;;;;;5096105;28;20481;-73
2022/05/12 07:41:23;;;;;;;4.33;1.17;;;15.60;99.90;;;;;;5094398;28;20469;-74
2022/05/12 07:43:51;;;;;;;4.70;1.20;;;15.60;99.90;;;;;;5094735;28;20461;-74
2022/05/12 07:46:19;;;;;;;1.63;0.90;;;15.50;99.90;;;;;;5095294;28;20479;-74
2022/05/12 07:48:46;;;;;;;1.97;1.00;;;15.40;99.90;;;;;;5094708;28;20459;-74
2022/05/12 07:51:13;;;;;;;4.23;1.20;;;15.40;99.90;;;;;;5094453;28;20745;-74
2022/05/12 07:53:41;;;;;;;1.57;0.80;;;15.60;99.90;;;;;;5094832;28;20891;-74
2022/05/12 07:56:10;;;;;;;1.53;0.80;;;15.70;99.90;;;;;;5094137;28;20493;-74
2022/05/12 07:58:37;;;;;;;1.43;0.83;;;15.80;99.90;;;;;;5094910;28;20846;-74
2022/05/12 08:01:04;;;;;;;1.50;0.80;;;15.90;99.90;;;;;;5094293;28;20871;-74
2022/05/12 08:03:30;;;;;;;2.03;1.10;;;15.90;99.90;;;;;;5094623;28;20464;-76
2022/05/12 08:05:59;;;;;;;1.57;1.00;;;16.00;99.90;;;;;;5094180;28;20836;-74
2022/05/12 08:08:29;;;;;;;1.50;1.07;;;16.00;99.90;;;;;;5095127;28;20601;-75
2022/05/12 08:10:57;;;;;;;1.43;1.03;;;16.00;99.90;;;;;;5095010;28;20469;-74
2022/05/12 08:13:25;;;;;;;2.23;1.00;;;15.90;99.90;;;;;;5094153;28;20944;-73
2022/05/12 08:15:53;;;;;;;1.77;0.90;;;15.90;99.90;;;;;;5094821;28;20453;-74
2022/05/12 08:18:21;;;;;;;2.10;0.93;;;15.80;99.90;;;;;;5095000;28;20499;-73
2022/05/12 08:20:49;;;;;;;3.00;1.00;;;15.80;99.90;;;;;;5094635;28;20774;-73
2022/05/12 08:23:16;;;;;;;2.90;1.17;;;15.90;99.90;;;;;;5094828;28;20524;-73
2022/05/12 08:25:44;;;;;;;2.17;1.27;;;15.80;99.90;;;;;;5094305;28;20457;-74
2022/05/12 08:28:15;;;;;;;2.43;1.30;;;15.80;99.90;;;;;;5094305;28;20487;-73
2022/05/12 08:30:43;;;;;;;1.90;1.27;;;15.90;99.90;;;;;;5094146;28;20448;-74
2022/05/12 08:33:09;;;;;;;1.37;1.07;;;16.10;99.90;;;;;;5096496;28;20468;-74
2022/05/12 08:35:36;;;;;;;4.20;1.10;;;16.00;99.90;;;;;;5100069;28;20453;-73
2022/05/12 08:38:03;;;;;;;4.50;1.43;;;15.90;99.90;;;;;;5100095;28;20788;-74
2022/05/12 08:40:38;;;;;;;1.43;0.90;;;16.00;99.90;;;;;;5098562;28;20453;-74
2022/05/12 08:43:12;;;;;;;1.13;0.90;;;15.90;99.90;;;;;;5097890;28;20881;-74
2022/05/12 08:45:41;;;;;;;4.33;1.00;;;16.00;99.90;;;;;;5097605;28;20491;-74
2022/05/12 08:48:11;;;;;;;2.30;1.17;;;16.00;99.90;;;;;;5097701;28;20449;-74
2022/05/12 08:50:40;;;;;;;2.27;1.00;;;16.00;99.90;;;;;;5097507;28;20453;-75
2022/05/12 08:53:13;;;;;;;4.33;1.37;;;16.10;99.90;;;;;;5097313;28;20732;-76
2022/05/12 08:55:46;;;;;;;3.07;0.93;;;16.20;99.90;;;;;;5096938;28;20450;-74
2022/05/12 08:58:20;;;;;;;5.43;1.30;;;16.20;99.90;;;;;;5097556;28;20749;-73
2022/05/12 09:00:57;;;;;;;4.40;1.27;;;16.10;99.90;;;;;;5097016;28;20451;-74
2022/05/12 09:03:35;;;;;;;3.17;1.10;;;16.10;99.90;;;;;;5097446;28;20448;-73
2022/05/12 09:06:05;;;;;;;1.93;1.20;;;16.20;99.90;;;;;;5097212;28;20448;-71
2022/05/12 09:08:38;;;;;;;1.70;0.97;;;16.30;99.90;;;;;;5096792;28;20473;-71
2022/05/12 09:11:11;;;;;;;2.33;0.90;;;16.30;99.90;;;;;;5096518;28;20473;-70
2022/05/12 09:13:43;;;;;;;2.47;1.30;;;16.30;99.90;;;;;;5096792;28;20449;-71
2022/05/12 09:16:17;;;;;;;2.77;1.17;;;16.50;99.90;;;;;;5096442;28;20514;-71
2022/05/12 09:18:44;;;;;;;4.37;1.43;;;16.70;99.90;;;;;;5096629;28;20585;-70
2022/05/12 09:21:14;;;;;;;3.20;1.13;;;16.80;99.90;;;;;;5096690;28;20452;-70
2022/05/12 09:23:41;;;;;;;2.00;1.10;;;16.80;99.90;;;;;;5097554;28;20544;-70
2022/05/12 09:26:32;;;;;;;2.20;1.20;;;16.60;99.90;;;;;;5097161;28;20453;-70
2022/05/12 09:29:09;;;;;;;2.20;1.10;;;16.50;99.90;;;;;;5097065;28;20776;-70
2022/05/12 09:31:37;;;;;;;1.70;1.20;;;16.60;99.90;;;;;;5097758;28;20630;-71
2022/05/12 09:34:15;;;;;;;2.53;1.43;;;16.80;99.90;;;;;;5096677;28;20469;-71
2022/05/12 09:36:42;;;;;;;1.63;1.13;;;16.90;99.90;;;;;;5096508;28;20442;-72
2022/05/12 09:39:09;;;;;;;2.17;1.10;;;16.70;99.90;;;;;;5096133;28;20477;-73
2022/05/12 09:41:40;;;;;;;3.77;1.60;;;16.50;99.90;;;;;;5096557;28;20457;-72
2022/05/12 09:44:22;;;;;;;2.87;1.20;;;16.30;99.90;;;;;;5096617;28;20448;-72
2022/05/12 09:46:59;;;;;;;1.80;1.10;;;16.40;99.90;;;;;;5095869;28;20434;-73
2022/05/12 09:49:31;;;;;;;2.63;1.17;;;16.50;99.90;;;;;;5096247;28;20511;-74
2022/05/12 09:51:58;;;;;;;2.10;1.10;;;16.50;99.90;;;;;;5096333;28;20520;-73
2022/05/12 09:54:28;;;;;;;3.60;1.50;;;16.70;99.90;;;;;;5096470;28;20788;-73
2022/05/12 09:57:10;;;;;;;3.20;1.50;;;16.80;99.90;;;;;;5096057;28;20762;-73
2022/05/12 09:59:38;;;;;;;1.87;1.30;;;16.90;99.90;;;;;;5095852;28;20558;-72
2022/05/12 10:02:12;;;;;;;3.20;1.33;;;16.90;99.90;;;;;;5096013;28;20518;-72
2022/05/12 10:10:16;;;;;;;2.77;1.30;;;16.60;99.90;;;;;;5095754;28;20417;-74
2022/05/12 10:12:50;;;;;;;3.93;1.83;;;16.70;99.90;;;;;;5095676;28;20476;-72
2022/05/12 10:15:27;;;;;;;2.50;1.20;;;16.90;99.90;;;;;;5095709;28;20793;-73
2022/05/12 10:18:00;;;;;;;5.40;1.40;;;17.10;99.90;;;;;;5095656;28;20449;-73
2022/05/12 10:20:29;;;;;;;4.57;1.17;;;17.20;99.90;;;;;;5095630;28;20465;-74
2022/05/12 10:23:03;;;;;;;5.13;1.50;;;17.30;99.90;;;;;;5095602;28;20515;-73
2022/05/12 10:25:56;;;;;;;3.30;1.10;;;17.40;99.90;;;;;;5095775;28;20448;-73
2022/05/12 10:28:29;;;;;;;3.10;1.10;;;17.60;99.90;;;;;;5096267;28;20994;-72
2022/05/12 10:31:02;;;;;;;3.93;1.33;;;17.80;99.90;;;;;;5095374;28;20516;-72
2022/05/12 10:33:41;;;;;;;1.93;1.10;;;17.90;99.90;;;;;;5095204;28;20890;-72
2022/05/12 10:36:22;;;;;;;3.77;1.00;;;18.00;99.90;;;;;;5095238;28;20767;-72
2022/05/12 10:38:57;;;;;;;2.60;1.10;;;18.00;99.90;;;;;;5094863;28;20503;-73
2022/05/12 10:41:29;;;;;;;1.57;0.97;;;18.00;99.90;;;;;;5095168;28;20449;-72
2022/05/12 10:44:22;;;;;;;3.10;1.50;;;17.70;99.90;;;;;;5095470;28;20488;-72
2022/05/12 10:46:57;;;;;;;2.90;1.60;;;17.60;99.90;;;;;;5094961;28;20886;-73
2022/05/12 10:49:32;;;;;;;2.20;1.20;;;17.60;99.90;;;;;;5094610;28;20448;-73
2022/05/12 10:52:13;;;;;;;3.23;1.20;;;17.60;99.90;;;;;;5095271;28;20905;-72
2022/05/12 10:54:53;;;;;;;2.43;1.10;;;17.70;99.90;;;;;;5094647;28;20448;-72
2022/05/12 10:57:35;;;;;;;2.60;1.37;;;17.80;99.90;;;;;;5094570;28;20444;-72
2022/05/12 11:00:24;;;;;;;2.80;1.07;;;18.00;99.90;;;;;;5094340;28;20865;-73
2022/05/12 11:02:53;;;;;;;2.17;1.00;;;18.00;99.90;;;;;;5094792;28;20457;-73
2022/05/12 11:05:31;;;;;;;4.97;1.30;;;18.00;99.90;;;;;;5094356;28;20524;-73
2022/05/12 11:08:05;;;;;;;1.90;0.90;;;18.00;99.90;;;;;;5094013;28;20472;-73
2022/05/12 11:10:39;;;;;;;4.70;1.20;;;18.00;99.90;;;;;;5094402;28;20947;-72
2022/05/12 11:13:15;;;;;;;2.10;1.20;;;18.00;99.90;;;;;;5094552;28;20442;-74
2022/05/12 11:15:50;;;;;;;2.20;1.10;;;18.10;99.90;;;;;;5094558;28;20449;-73
2022/05/12 11:18:23;;;;;;;2.93;1.60;;;18.20;99.90;;;;;;5094662;28;20452;-73
2022/05/12 11:21:00;;;;;;;4.03;1.10;;;18.40;99.90;;;;;;5094503;28;20960;-72
2022/05/12 11:23:39;;;;;;;9.13;1.10;;;18.60;99.90;;;;;;5095083;28;20476;-72
2022/05/12 11:26:15;;;;;;;2.23;1.10;;;18.60;99.90;;;;;;5094888;28;20445;-72
2022/05/12 11:31:39;;;;;;;2.60;1.70;;;19.10;99.90;;;;;;5094562;28;20425;-73
2022/05/12 11:34:09;;;;;;;3.00;1.40;;;19.90;99.90;;;;;;5094485;28;20473;-74
2022/05/12 11:36:42;;;;;;;3.10;1.00;;;20.70;99.90;;;;;;5094379;28;20441;-72
2022/05/12 11:39:28;;;;;;;1.77;1.03;;;20.90;99.90;;;;;;5094575;28;20453;-74
2022/05/12 11:42:17;;;;;;;2.33;1.10;;;20.60;99.90;;;;;;5095004;28;20429;-73
2022/05/12 11:44:53;;;;;;;2.13;1.00;;;20.60;98.10;;;;;;5094608;28;20890;-73
2022/05/12 11:48:00;;;;;;;2.13;0.90;;;20.60;96.80;;;;;;5094981;28;20528;-72
2022/05/12 11:50:47;;;;;;;1.60;0.90;;;19.90;95.40;;;;;;5095105;28;20444;-73
2022/05/12 11:53:18;;;;;;;4.13;1.10;;;19.60;97.50;;;;;;5096068;28;20449;-73
2022/05/12 11:56:01;;;;;;;5.17;1.20;;;19.90;97.30;;;;;;5096079;28;20754;-72
2022/05/12 11:58:35;;;;;;;1.30;1.03;;;20.40;96.20;;;;;;5095062;28;20775;-73
2022/05/12 12:01:04;;;;;;;4.57;0.93;;;20.70;95.00;;;;;;5096010;28;20474;-74
2022/05/12 12:03:49;;;;;;;2.47;0.93;;;20.60;95.00;;;;;;5100589;28;20446;-72
2022/05/12 12:06:46;;;;;;;5.10;1.27;;;20.10;96.30;;;;;;5100040;28;20448;-72
2022/05/12 12:09:53;;;;;;;2.20;1.30;;;20.00;96.00;;;;;;5100769;28;20449;-73
2022/05/12 12:12:56;;;;;;;1.73;1.00;;;20.40;96.10;;;;;;5103905;28;20524;-72
2022/05/12 12:16:05;;;;;;;4.90;1.23;;;20.00;95.90;;;;;;5104440;28;20975;-72
2022/05/12 12:19:07;;;;;;;1.87;1.20;;;20.10;96.00;;;;;;5098270;28;20478;-73
2022/05/12 12:22:07;;;;;;;3.07;1.20;;;20.40;96.40;;;;;;5105020;28;20433;-73
2022/05/12 12:24:58;;;;;;;1.20;1.07;;;20.40;95.30;;;;;;5104677;28;20773;-72
2022/05/12 12:27:38;;;;;;;2.50;1.10;;;19.70;95.70;;;;;;5105036;28;20458;-73
2022/05/12 12:30:25;;;;;;;3.17;1.30;;;19.60;98.10;;;;;;5104276;28;20524;-72
2022/05/12 12:33:13;;;;;;;1.33;1.20;;;20.00;95.50;;;;;;5104850;28;20543;-73
2022/05/12 12:35:54;;;;;;;1.90;1.13;;;20.20;96.20;;;;;;5106266;28;20913;-73
2022/05/12 12:39:04;;;;;;;8.93;1.30;;;20.20;96.00;;;;;;5104865;28;20447;-72
2022/05/12 12:41:39;;;;;;;1.60;1.10;;;20.10;96.50;;;;;;5105509;28;20466;-73
2022/05/12 12:44:12;;;;;;;1.70;1.17;;;19.90;97.70;;;;;;5105365;28;20741;-73
2022/05/12 12:47:04;;;;;;;2.00;1.40;;;19.70;97.40;;;;;;5105496;28;20434;-73
2022/05/12 12:49:33;;;;;;;2.00;1.30;;;19.50;98.50;;;;;;5104790;28;20537;-73
2022/05/12 12:52:07;;;;;;;2.17;1.10;;;19.50;99.70;;;;;;5104351;28;20457;-72
2022/05/12 12:57:24;;;;;;;2.00;0.90;;;21.10;98.60;;;;;;5102798;28;20440;-72
2022/05/12 12:59:55;;;;;;;3.37;1.20;;;22.50;91.90;;;;;;5100979;28;20610;-71
2022/05/12 13:02:32;;;;;;;1.77;0.90;;;22.90;91.20;;;;;;5098893;28;20715;-71
2022/05/12 13:05:04;;;;;;;2.13;1.17;;;23.20;83.30;;;;;;5098162;28;20552;-72
2022/05/12 13:07:33;;;;;;;1.73;1.00;;;22.90;80.70;;;;;;5097526;28;20524;-72
2022/05/12 13:10:06;;;;;;;1.70;1.00;;;22.70;82.60;;;;;;5098551;28;20481;-72
2022/05/12 13:12:34;;;;;;;1.50;1.00;;;22.80;81.20;;;;;;5098234;28;20488;-72
2022/05/12 13:15:02;;;;;;;4.40;1.60;;;22.50;80.40;;;;;;5099426;28;20461;-71
2022/05/12 13:17:34;;;;;;;1.40;0.90;;;21.90;82.10;;;;;;5097657;28;20468;-72
2022/05/12 13:20:04;;;;;;;1.73;1.00;;;22.00;79.80;;;;;;5100851;28;20462;-72
2022/05/12 13:22:37;;;;;;;1.87;1.03;;;22.50;78.80;;;;;;5105325;28;20511;-72
2022/05/12 13:25:04;;;;;;;1.50;0.97;;;22.80;77.70;;;;;;5102363;28;20437;-72
2022/05/12 13:27:37;;;;;;;3.70;1.10;;;22.80;78.20;;;;;;5100077;28;20457;-72